Time;durP1;ratioP1;P1;durP2;ratioP2;P2;SDS_P1;SDS_P2;PMS_P1;PMS_P2;Temp;Humidity;BMP_temperature;BMP_pressure;BME280_temperature;BME280_humidity;BME280_pressure;Samples;Min_cycle;Max_cycle;Signal;HPM_P1;HPM_P2
2023/12/12 09:25:37;;;;;;;5.88;1.73;;;24.80;77.20;;;;;;6203119;23;20126;-71
2023/12/12 09:28:05;;;;;;;7.82;1.80;;;24.80;77.10;;;;;;6172650;23;20052;-70
2023/12/12 09:30:32;;;;;;;5.22;1.50;;;24.80;77.30;;;;;;6181177;23;20016;-70
2023/12/12 09:32:59;;;;;;;8.73;2.00;;;24.80;76.90;;;;;;6181029;23;20008;-70
2023/12/12 09:35:29;;;;;;;9.45;1.58;;;24.70;76.90;;;;;;6180320;23;20364;-70
2023/12/12 09:37:56;;;;;;;7.50;1.50;;;24.80;76.80;;;;;;6178802;23;20031;-70
2023/12/12 09:40:24;;;;;;;7.78;2.28;;;24.80;77.00;;;;;;6180116;23;20080;-69
2023/12/12 09:42:51;;;;;;;6.35;1.70;;;24.70;77.40;;;;;;6179393;23;20063;-69
2023/12/12 09:45:18;;;;;;;6.68;1.60;;;24.70;77.20;;;;;;6178640;23;20452;-70
2023/12/12 09:47:46;;;;;;;4.40;1.52;;;24.70;77.50;;;;;;6154059;23;20010;-70
2023/12/12 09:50:13;;;;;;;8.23;1.60;;;24.60;77.90;;;;;;6179958;23;20020;-70
2023/12/12 09:52:40;;;;;;;11.43;1.88;;;24.60;77.80;;;;;;6178480;23;20019;-69
2023/12/12 09:55:10;;;;;;;6.35;1.48;;;24.60;78.00;;;;;;6180648;23;20009;-69
2023/12/12 09:57:37;;;;;;;5.88;1.45;;;24.60;78.00;;;;;;6181158;23;20013;-70
2023/12/12 10:00:08;;;;;;;8.82;1.67;;;24.60;78.00;;;;;;6181028;23;20009;-69
2023/12/12 10:02:36;;;;;;;6.82;2.00;;;24.60;77.90;;;;;;6180376;23;20032;-69
2023/12/12 10:05:10;;;;;;;11.25;1.98;;;24.60;78.10;;;;;;6179393;23;20145;-68
2023/12/12 10:07:37;;;;;;;10.32;1.98;;;24.50;78.30;;;;;;6180469;23;20029;-70
2023/12/12 10:10:07;;;;;;;5.97;1.80;;;24.50;78.30;;;;;;6178806;23;20577;-70
2023/12/12 10:12:35;;;;;;;10.57;2.47;;;24.50;78.50;;;;;;6180702;23;20001;-70
2023/12/12 10:15:02;;;;;;;5.10;1.42;;;24.50;78.50;;;;;;6182843;23;20072;-69
2023/12/12 10:17:39;;;;;;;5.45;1.80;;;24.60;78.40;;;;;;6182662;23;20012;-68
2023/12/12 10:20:07;;;;;;;8.20;1.65;;;24.60;78.30;;;;;;6181575;23;20016;-69
2023/12/12 10:22:34;;;;;;;11.57;2.13;;;24.60;78.60;;;;;;6181771;23;20013;-70
2023/12/12 10:25:14;;;;;;;8.35;1.58;;;24.60;78.50;;;;;;6180530;23;20068;-70
2023/12/12 10:27:45;;;;;;;7.93;1.70;;;24.60;78.40;;;;;;6201781;23;20021;-69
2023/12/12 10:30:13;;;;;;;7.45;1.75;;;24.50;78.60;;;;;;6186101;23;20008;-68
2023/12/12 10:32:41;;;;;;;7.18;1.80;;;24.50;78.80;;;;;;6212165;23;20009;-69
2023/12/12 10:35:08;;;;;;;5.95;1.65;;;24.50;79.00;;;;;;6211843;23;20003;-69
2023/12/12 10:37:35;;;;;;;9.45;1.95;;;24.40;79.30;;;;;;6212158;23;20145;-69
2023/12/12 10:40:21;;;;;;;9.40;1.63;;;24.40;79.30;;;;;;6212772;23;20016;-68
2023/12/12 10:42:49;;;;;;;4.75;1.50;;;24.40;79.50;;;;;;6211794;23;20023;-68
2023/12/12 10:45:17;;;;;;;11.00;1.65;;;24.40;79.60;;;;;;6185939;23;20493;-69
2023/12/12 10:47:51;;;;;;;10.07;1.80;;;24.30;79.70;;;;;;6185879;23;20092;-69
2023/12/12 10:50:18;;;;;;;9.52;1.70;;;24.30;79.90;;;;;;6212206;23;20386;-68
2023/12/12 10:52:48;;;;;;;6.05;1.70;;;24.30;80.00;;;;;;6212777;23;20005;-68
2023/12/12 10:55:16;;;;;;;6.45;1.45;;;24.30;79.60;;;;;;6185878;23;20019;-69
2023/12/12 12:32:29;;;;;;;10.55;1.85;;;23.80;81.10;;;;;;6209783;23;20032;-70
2023/12/12 12:35:09;;;;;;;6.32;1.33;;;23.80;81.20;;;;;;6210975;23;20011;-70
2023/12/12 12:37:37;;;;;;;4.38;1.35;;;23.80;81.30;;;;;;6211549;23;20004;-70
2023/12/12 12:40:05;;;;;;;7.45;1.75;;;23.70;81.40;;;;;;6211233;23;20007;-70
2023/12/12 12:42:36;;;;;;;7.00;1.45;;;23.70;81.50;;;;;;6184491;23;20439;-70
2023/12/12 12:45:04;;;;;;;6.97;1.58;;;23.70;81.70;;;;;;6185411;23;20036;-71
2023/12/12 12:47:32;;;;;;;7.82;1.40;;;23.70;81.80;;;;;;6211277;23;20503;-71
2023/12/12 12:49:59;;;;;;;8.77;1.67;;;23.60;82.00;;;;;;6211390;23;20016;-70
2023/12/12 12:52:26;;;;;;;6.22;1.70;;;23.70;82.10;;;;;;6211363;23;20009;-71
2023/12/12 12:54:54;;;;;;;8.65;1.60;;;23.50;82.30;;;;;;6211274;23;20008;-71
2023/12/12 12:57:21;;;;;;;6.82;1.42;;;23.50;82.40;;;;;;6212103;23;20004;-71
2023/12/12 12:59:48;;;;;;;5.53;1.50;;;23.60;82.30;;;;;;6210996;23;20783;-71
2023/12/12 13:02:15;;;;;;;4.78;1.48;;;23.60;82.40;;;;;;6211563;23;20011;-71
2023/12/12 13:04:42;;;;;;;6.05;1.60;;;23.50;82.40;;;;;;6210721;23;20207;-71
2023/12/12 13:07:10;;;;;;;6.60;1.65;;;23.50;82.60;;;;;;6210971;23;20004;-71
2023/12/12 13:09:37;;;;;;;4.10;1.40;;;23.50;82.60;;;;;;6184535;23;20009;-71
2023/12/12 13:12:05;;;;;;;5.03;1.73;;;23.50;82.80;;;;;;6184878;23;20043;-71
2023/12/12 13:14:33;;;;;;;8.52;1.83;;;23.50;82.80;;;;;;6210897;23;20011;-71
2023/12/12 13:17:00;;;;;;;6.35;1.45;;;23.50;82.80;;;;;;6184699;23;20013;-71
2023/12/12 13:19:27;;;;;;;5.22;1.58;;;23.50;82.90;;;;;;6211215;23;20005;-71
2023/12/12 13:21:55;;;;;;;11.60;2.08;;;23.50;82.90;;;;;;6210809;23;20058;-71
2023/12/12 13:24:23;;;;;;;6.97;1.80;;;23.40;82.80;;;;;;6210697;23;20075;-71
2023/12/12 13:26:53;;;;;;;6.32;1.70;;;23.40;83.10;;;;;;6208675;23;20008;-71
2023/12/12 13:29:20;;;;;;;9.63;1.92;;;23.40;83.00;;;;;;6210341;23;20336;-71
2023/12/12 13:31:47;;;;;;;7.90;1.80;;;23.40;83.00;;;;;;6210653;23;20024;-71
2023/12/12 13:34:14;;;;;;;8.20;1.60;;;23.40;83.00;;;;;;6210316;23;20005;-70
2023/12/12 13:36:43;;;;;;;7.45;2.00;;;23.40;83.10;;;;;;6210561;23;20020;-70
2023/12/12 13:39:12;;;;;;;6.57;1.75;;;23.30;83.20;;;;;;6184000;23;20079;-71
2023/12/12 13:41:40;;;;;;;5.18;1.40;;;23.30;83.30;;;;;;6210907;23;20072;-71
2023/12/12 13:44:07;;;;;;;7.32;1.55;;;23.30;83.40;;;;;;6210622;23;20450;-71
2023/12/12 13:46:34;;;;;;;8.20;1.73;;;23.30;83.40;;;;;;6184247;23;20432;-71
2023/12/12 13:49:02;;;;;;;5.47;1.40;;;23.30;83.40;;;;;;6210791;23;20032;-71
2023/12/12 13:51:29;;;;;;;7.63;2.00;;;23.30;83.50;;;;;;6184222;23;20013;-71
2023/12/12 13:53:56;;;;;;;7.85;1.80;;;23.30;83.50;;;;;;6210919;23;20003;-71
2023/12/12 13:56:24;;;;;;;6.90;1.70;;;23.30;83.50;;;;;;6210903;23;20016;-71
2023/12/12 13:58:51;;;;;;;4.68;1.60;;;23.30;83.40;;;;;;6184555;23;20013;-71
2023/12/12 14:01:18;;;;;;;7.55;1.70;;;23.30;83.40;;;;;;6211220;23;20000;-71
2023/12/12 14:03:46;;;;;;;6.55;1.60;;;23.30;83.40;;;;;;6210686;23;20008;-71
2023/12/12 14:06:13;;;;;;;7.35;1.42;;;23.30;83.40;;;;;;6210633;23;20075;-71
2023/12/12 14:08:40;;;;;;;6.63;1.40;;;23.30;83.30;;;;;;6184991;23;20347;-71
2023/12/12 14:11:08;;;;;;;6.50;1.42;;;23.30;83.40;;;;;;6209809;23;20023;-71
2023/12/12 14:13:35;;;;;;;5.38;1.70;;;23.30;83.40;;;;;;6210220;23;20012;-71
2023/12/12 14:16:02;;;;;;;8.48;1.70;;;23.30;83.40;;;;;;6210592;23;20389;-71
2023/12/12 14:18:29;;;;;;;6.22;1.65;;;23.30;83.50;;;;;;6184231;23;20031;-71
2023/12/12 14:20:57;;;;;;;8.10;1.67;;;23.20;83.60;;;;;;6210803;23;20004;-71
2023/12/12 14:23:24;;;;;;;6.43;1.23;;;23.20;83.70;;;;;;6210297;23;20074;-70
2023/12/12 14:25:52;;;;;;;8.73;1.73;;;23.20;83.70;;;;;;6210740;23;20456;-71
2023/12/12 14:28:19;;;;;;;6.97;1.50;;;23.20;83.70;;;;;;6208332;23;20005;-71
2023/12/12 14:30:46;;;;;;;8.38;1.70;;;23.20;83.90;;;;;;6210675;23;20096;-71
2023/12/12 14:33:13;;;;;;;6.68;1.67;;;23.10;84.00;;;;;;6210525;23;20016;-71
2023/12/12 14:35:40;;;;;;;6.10;1.58;;;23.10;84.00;;;;;;6210608;23;20353;-71
2023/12/12 14:38:08;;;;;;;6.95;1.40;;;23.10;83.90;;;;;;6210864;23;20004;-71
2023/12/12 14:40:35;;;;;;;6.47;1.83;;;23.10;83.90;;;;;;6210427;23;20001;-71
2023/12/12 14:43:03;;;;;;;5.88;1.40;;;23.10;83.90;;;;;;6184508;23;20004;-71
2023/12/12 14:45:30;;;;;;;5.85;1.60;;;23.10;83.90;;;;;;6210767;23;20005;-71
2023/12/12 14:47:59;;;;;;;5.82;1.58;;;23.10;83.90;;;;;;6159640;23;20008;-71
2023/12/12 14:50:27;;;;;;;17.08;6.85;;;23.00;84.10;;;;;;6210147;23;20024;-71
2023/12/12 14:52:57;;;;;;;5.38;2.33;;;23.00;84.20;;;;;;6185028;23;20023;-71
2023/12/12 14:55:24;;;;;;;5.53;1.52;;;23.00;84.20;;;;;;6211104;23;20171;-71
2023/12/12 14:57:52;;;;;;;6.47;1.90;;;23.00;84.20;;;;;;6211204;23;20042;-71
2023/12/12 15:00:22;;;;;;;7.20;1.67;;;23.00;84.30;;;;;;6187135;23;20005;-71
2023/12/12 15:02:49;;;;;;;6.60;1.65;;;23.00;84.30;;;;;;6185950;23;20016;-71
2023/12/12 15:05:17;;;;;;;4.68;1.50;;;23.00;84.40;;;;;;6212764;23;20005;-71
2023/12/12 15:07:44;;;;;;;6.35;1.15;;;22.90;84.50;;;;;;6186042;23;20416;-71
2023/12/12 15:10:11;;;;;;;6.55;1.40;;;22.90;84.60;;;;;;6211385;23;20012;-71
2023/12/12 15:12:39;;;;;;;7.32;1.50;;;22.90;84.60;;;;;;6212359;23;20004;-71
2023/12/12 15:15:07;;;;;;;7.10;1.40;;;22.80;84.70;;;;;;6212087;23;20008;-71
2023/12/12 15:17:34;;;;;;;4.55;1.30;;;22.80;84.90;;;;;;6212669;23;20030;-72
2023/12/12 15:20:03;;;;;;;5.75;1.58;;;22.80;85.00;;;;;;6211906;23;20076;-71
2023/12/12 15:22:30;;;;;;;4.88;1.52;;;22.80;85.00;;;;;;6210892;23;20743;-71
2023/12/12 15:24:57;;;;;;;5.65;1.40;;;22.80;85.10;;;;;;6185897;23;20001;-71
2023/12/12 15:27:24;;;;;;;5.53;1.40;;;22.80;85.10;;;;;;6213741;23;20013;-71
2023/12/12 15:29:54;;;;;;;6.55;1.58;;;22.80;85.20;;;;;;6214658;23;20012;-71
2023/12/12 15:32:21;;;;;;;4.70;1.50;;;22.80;85.30;;;;;;6214884;23;20086;-71
2023/12/12 15:34:48;;;;;;;5.97;1.60;;;22.80;85.10;;;;;;6215441;23;20436;-71
2023/12/12 15:37:15;;;;;;;4.10;1.50;;;22.80;85.20;;;;;;6215385;23;20058;-71
2023/12/12 15:39:43;;;;;;;8.50;1.40;;;22.80;85.20;;;;;;6215182;23;20421;-71
2023/12/12 15:42:10;;;;;;;8.02;1.65;;;22.70;85.30;;;;;;6215553;23;20004;-71
2023/12/12 15:44:38;;;;;;;8.57;1.60;;;22.70;85.50;;;;;;6215223;23;20379;-71
2023/12/12 15:47:06;;;;;;;5.35;1.85;;;22.70;85.50;;;;;;6215026;23;20005;-71
2023/12/12 15:49:33;;;;;;;7.25;1.70;;;22.70;85.80;;;;;;6188786;23;20000;-71
2023/12/12 15:52:02;;;;;;;8.50;1.73;;;22.70;85.70;;;;;;6215314;23;20031;-71
2023/12/12 15:54:29;;;;;;;5.95;1.33;;;22.70;85.70;;;;;;6215365;23;20447;-71
2023/12/12 15:56:56;;;;;;;7.82;1.77;;;22.70;85.70;;;;;;6215092;23;20032;-71
2023/12/12 15:59:23;;;;;;;4.72;1.83;;;22.70;85.70;;;;;;6215292;23;20004;-71
2023/12/12 16:01:51;;;;;;;7.07;1.67;;;22.70;85.60;;;;;;6215072;23;20001;-71
2023/12/12 16:04:18;;;;;;;6.18;1.73;;;22.70;85.60;;;;;;6215062;23;20011;-71
2023/12/12 16:06:45;;;;;;;5.20;1.60;;;22.70;85.60;;;;;;6214613;23;20008;-71
2023/12/12 16:09:13;;;;;;;5.88;1.60;;;22.70;85.60;;;;;;6214177;23;20050;-71
2023/12/12 16:11:41;;;;;;;7.00;1.73;;;22.70;85.80;;;;;;6214929;23;20087;-71
2023/12/12 16:14:11;;;;;;;8.15;1.95;;;22.70;85.80;;;;;;6215254;23;20325;-71
2023/12/12 16:16:40;;;;;;;8.60;1.80;;;22.70;85.80;;;;;;6189768;23;20008;-71
2023/12/12 16:19:09;;;;;;;5.57;1.43;;;22.70;86.00;;;;;;6189146;23;20047;-71
2023/12/12 16:21:39;;;;;;;5.00;1.85;;;22.60;85.80;;;;;;6214490;23;20001;-71
2023/12/12 16:24:05;;;;;;;;;;;22.70;85.70;;;;;;6215729;23;20008;-71
2023/12/12 16:26:33;;;;;;;5.93;1.55;;;22.70;85.70;;;;;;6215582;23;19900;-71
2023/12/12 16:29:02;;;;;;;3.67;1.38;;;22.60;85.80;;;;;;6215438;23;20435;-71
2023/12/12 16:31:30;;;;;;;7.83;1.73;;;22.60;86.00;;;;;;6214126;23;20048;-71
2023/12/12 16:33:58;;;;;;;4.15;1.30;;;22.60;86.10;;;;;;6215488;23;20015;-71
2023/12/12 16:36:25;;;;;;;7.32;1.52;;;22.60;86.00;;;;;;6188905;23;20004;-71
2023/12/12 16:38:59;;;;;;;4.47;1.80;;;22.60;86.20;;;;;;6214987;23;20004;-71
2023/12/12 16:41:27;;;;;;;4.78;1.58;;;22.60;86.10;;;;;;6214543;23;20306;-71
2023/12/12 18:39:52;;;;;;;6.13;1.80;;;22.60;87.10;;;;;;6211854;23;20027;-71
2023/12/12 18:42:19;;;;;;;11.05;2.08;;;22.60;87.10;;;;;;6186001;23;20006;-71
2023/12/12 18:44:46;;;;;;;4.78;1.70;;;22.60;87.30;;;;;;6186062;23;20005;-70
2023/12/12 18:47:14;;;;;;;6.53;1.50;;;22.60;87.30;;;;;;6186143;23;20008;-70
2023/12/12 18:49:41;;;;;;;7.13;1.65;;;22.70;87.30;;;;;;6185894;23;20012;-70
2023/12/12 18:52:08;;;;;;;10.02;1.90;;;22.70;87.30;;;;;;6186167;23;20011;-71
2023/12/12 18:54:36;;;;;;;9.45;1.75;;;22.70;87.30;;;;;;6185769;23;20005;-70
2023/12/12 18:57:03;;;;;;;7.38;1.42;;;22.70;87.30;;;;;;6186019;23;20002;-71
2023/12/12 18:59:31;;;;;;;8.45;1.90;;;22.70;87.40;;;;;;6159832;23;20378;-70
2023/12/12 19:01:58;;;;;;;5.28;1.70;;;22.80;87.40;;;;;;6185438;23;20046;-71
2023/12/12 19:04:25;;;;;;;7.25;2.15;;;22.80;87.40;;;;;;6186130;23;19998;-70
2023/12/12 19:06:59;;;;;;;11.80;2.95;;;22.80;87.30;;;;;;6186002;23;20336;-71
2023/12/12 19:09:26;;;;;;;6.60;1.73;;;22.80;87.20;;;;;;6160585;23;20417;-71
2023/12/12 19:11:54;;;;;;;8.15;1.92;;;22.80;87.20;;;;;;6185869;23;20372;-70
2023/12/12 19:14:21;;;;;;;7.30;2.17;;;22.90;87.20;;;;;;6185819;23;20005;-70
2023/12/12 19:16:48;;;;;;;6.15;1.60;;;22.90;87.20;;;;;;6159864;23;20059;-70
2023/12/12 19:19:16;;;;;;;8.68;1.90;;;22.90;87.20;;;;;;6159833;23;20076;-71
2023/12/12 19:21:43;;;;;;;9.73;2.03;;;22.90;87.10;;;;;;6186192;23;20005;-70
2023/12/12 19:24:10;;;;;;;6.70;1.85;;;22.90;87.30;;;;;;6159347;23;20096;-70
2023/12/12 19:26:38;;;;;;;6.57;1.90;;;23.00;87.40;;;;;;6158971;23;20005;-70
2023/12/12 19:29:06;;;;;;;7.43;1.70;;;22.90;87.30;;;;;;6159422;23;20016;-70
2023/12/12 19:31:34;;;;;;;9.95;2.33;;;22.90;87.30;;;;;;6185686;23;20486;-68
2023/12/12 19:34:03;;;;;;;8.63;2.25;;;23.00;87.40;;;;;;6185332;23;20424;-70
2023/12/12 19:36:30;;;;;;;5.20;1.70;;;23.00;87.40;;;;;;6135387;23;20091;-71
2023/12/12 19:38:57;;;;;;;10.93;2.20;;;23.00;87.50;;;;;;6185157;23;20334;-71
2023/12/12 20:28:30;;;;;;;8.13;2.25;;;23.80;85.00;;;;;;6203558;23;20055;-70
2023/12/12 20:30:59;;;;;;;9.63;2.10;;;23.90;85.20;;;;;;6213748;23;20329;-70
2023/12/12 20:33:27;;;;;;;14.15;2.50;;;24.00;85.40;;;;;;6215675;23;20079;-71
2023/12/12 20:35:55;;;;;;;7.85;2.40;;;24.00;84.30;;;;;;6216019;23;20009;-71
2023/12/12 20:38:22;;;;;;;5.55;1.90;;;24.00;84.70;;;;;;6215686;23;20008;-71
2023/12/12 20:40:49;;;;;;;7.03;1.77;;;24.00;84.70;;;;;;6188382;23;20425;-71
2023/12/12 20:43:16;;;;;;;7.30;2.00;;;24.00;84.80;;;;;;6215141;23;20305;-71
2023/12/12 20:45:44;;;;;;;8.63;2.00;;;24.00;84.30;;;;;;6215338;23;20001;-71
2023/12/12 20:48:12;;;;;;;11.05;2.10;;;24.10;84.50;;;;;;6215136;23;20005;-70
2023/12/12 20:50:42;;;;;;;11.10;2.08;;;24.20;83.90;;;;;;6215120;23;20009;-70
2023/12/12 20:53:10;;;;;;;11.52;2.72;;;24.20;83.80;;;;;;6214987;23;20024;-71
2023/12/12 20:55:37;;;;;;;6.43;1.85;;;24.20;83.40;;;;;;6188301;23;20032;-71
2023/12/12 20:58:04;;;;;;;10.07;2.00;;;24.30;83.30;;;;;;6215157;23;20047;-71
2023/12/12 21:00:32;;;;;;;13.88;2.85;;;24.30;82.70;;;;;;6187447;23;20013;-71
2023/12/12 21:02:59;;;;;;;27.85;3.80;;;24.30;83.10;;;;;;6164337;23;20004;-69
2023/12/12 21:05:27;;;;;;;18.98;3.08;;;24.30;83.10;;;;;;6188526;23;20011;-71
2023/12/12 21:07:54;;;;;;;26.17;3.92;;;24.30;82.40;;;;;;6214920;23;20009;-71
2023/12/12 21:10:21;;;;;;;19.17;2.28;;;24.30;81.40;;;;;;6214938;23;20013;-71
2023/12/12 21:12:48;;;;;;;17.83;3.05;;;24.30;81.30;;;;;;6214634;23;20001;-71
2023/12/12 21:15:16;;;;;;;20.70;3.25;;;24.40;81.50;;;;;;6214516;23;20328;-70
2023/12/12 21:17:43;;;;;;;9.38;1.98;;;24.40;81.50;;;;;;6214997;23;20013;-70
2023/12/12 21:20:12;;;;;;;11.40;2.15;;;24.40;81.20;;;;;;6214857;23;20051;-70
2023/12/12 21:22:39;;;;;;;10.60;2.55;;;24.50;81.50;;;;;;6214986;23;20007;-71
2023/12/12 21:25:07;;;;;;;8.20;1.92;;;24.60;81.90;;;;;;6214698;23;20004;-70
2023/12/12 21:27:35;;;;;;;11.30;2.08;;;24.50;80.70;;;;;;6214503;23;20024;-70
2023/12/12 21:30:03;;;;;;;7.53;1.80;;;24.60;81.00;;;;;;6214769;23;20004;-70
2023/12/12 21:32:30;;;;;;;5.20;1.90;;;24.80;80.10;;;;;;6214841;23;20008;-71
2023/12/12 21:34:57;;;;;;;5.20;1.48;;;24.90;80.90;;;;;;6214381;23;20438;-70
2023/12/12 21:37:24;;;;;;;7.75;2.33;;;25.10;80.20;;;;;;6215019;23;20008;-70
2023/12/12 21:39:53;;;;;;;11.68;2.00;;;25.10;80.10;;;;;;6188225;23;20081;-70
2023/12/12 21:42:21;;;;;;;6.78;1.48;;;25.20;79.50;;;;;;6214758;23;20032;-70
2023/12/12 21:44:48;;;;;;;6.47;1.83;;;25.20;78.80;;;;;;6214527;23;20011;-71
2023/12/12 21:47:16;;;;;;;9.77;2.20;;;25.30;78.50;;;;;;6214932;23;20004;-71
2023/12/12 21:49:45;;;;;;;10.63;1.50;;;25.30;77.20;;;;;;6214675;23;20003;-70
2023/12/12 21:52:12;;;;;;;9.13;2.00;;;25.30;77.00;;;;;;6214671;23;20015;-70
2023/12/12 21:54:39;;;;;;;10.63;1.95;;;25.40;77.30;;;;;;6188387;23;20076;-70
2023/12/12 21:57:06;;;;;;;5.10;1.63;;;25.50;77.80;;;;;;6214587;23;20000;-70
2023/12/12 21:59:34;;;;;;;11.82;1.90;;;25.60;75.40;;;;;;6214290;23;20019;-70
2023/12/12 22:02:01;;;;;;;8.68;2.00;;;25.70;75.00;;;;;;6188258;23;20447;-70
2023/12/12 22:04:28;;;;;;;8.32;1.92;;;25.80;75.60;;;;;;6214926;23;20004;-70
2023/12/12 22:06:56;;;;;;;11.15;1.75;;;25.80;74.80;;;;;;6214903;23;20081;-70
2023/12/12 22:09:24;;;;;;;11.32;1.90;;;26.00;75.60;;;;;;6216649;23;20216;-70
2023/12/12 22:11:52;;;;;;;10.15;2.25;;;26.10;73.70;;;;;;6216429;23;20044;-71
2023/12/12 22:14:19;;;;;;;13.82;2.25;;;26.20;74.00;;;;;;6216712;23;20072;-70
2023/12/12 22:16:46;;;;;;;9.13;2.20;;;26.30;75.70;;;;;;6216619;23;20343;-70
2023/12/12 22:19:13;;;;;;;8.95;2.42;;;26.30;75.60;;;;;;6216495;23;20004;-70
2023/12/12 22:21:41;;;;;;;7.28;1.95;;;26.30;75.10;;;;;;6216712;23;20059;-70
2023/12/12 22:24:08;;;;;;;9.00;2.13;;;26.20;73.40;;;;;;6215961;23;20432;-70
2023/12/12 22:26:35;;;;;;;7.82;1.77;;;26.20;74.50;;;;;;6216338;23;20007;-70
2023/12/12 22:29:02;;;;;;;12.82;2.10;;;26.00;74.10;;;;;;6189912;23;20440;-70
2023/12/12 22:31:30;;;;;;;8.85;1.73;;;26.10;73.50;;;;;;6190109;23;20336;-70
2023/12/12 22:33:57;;;;;;;13.00;2.05;;;26.20;73.90;;;;;;6216235;23;20448;-70
2023/12/12 22:36:24;;;;;;;11.32;1.80;;;26.20;75.30;;;;;;6216561;23;20012;-70
2023/12/12 22:38:53;;;;;;;11.60;2.03;;;26.30;75.00;;;;;;6190149;23;19997;-70
2023/12/12 22:41:20;;;;;;;7.00;1.83;;;26.40;74.10;;;;;;6216185;23;20011;-70
2023/12/12 22:43:48;;;;;;;8.10;2.15;;;26.50;74.40;;;;;;6189844;23;20383;-70
2023/12/12 22:46:19;;;;;;;8.07;2.35;;;26.70;74.30;;;;;;6215760;23;20368;-70
2023/12/12 22:48:47;;;;;;;9.73;1.98;;;26.80;75.40;;;;;;6216123;23;20011;-70
2023/12/12 22:51:22;;;;;;;10.13;2.10;;;26.90;73.10;;;;;;6216119;23;20017;-70
2023/12/12 22:53:50;;;;;;;10.90;2.63;;;26.80;72.60;;;;;;6216154;23;20009;-70
2023/12/12 22:56:17;;;;;;;7.82;1.85;;;26.50;71.50;;;;;;6189693;23;20420;-70
2023/12/12 22:58:46;;;;;;;8.85;1.88;;;26.30;72.20;;;;;;6216131;23;20023;-70
2023/12/12 23:01:13;;;;;;;5.47;1.80;;;26.20;70.50;;;;;;6216164;23;20004;-71
2023/12/12 23:03:40;;;;;;;9.18;2.20;;;26.10;71.60;;;;;;6189232;23;20005;-70
2023/12/12 23:06:08;;;;;;;6.80;1.80;;;26.10;71.80;;;;;;6189596;23;19997;-70
2023/12/12 23:08:35;;;;;;;8.98;1.80;;;26.10;71.80;;;;;;6189722;23;20005;-70
2023/12/12 23:11:03;;;;;;;7.85;1.80;;;26.20;71.80;;;;;;6164739;23;20013;-70
2023/12/12 23:13:31;;;;;;;9.32;2.08;;;26.10;71.10;;;;;;6189659;23;20011;-70
2023/12/12 23:15:58;;;;;;;11.70;2.03;;;26.10;72.00;;;;;;6215700;23;20009;-70
2023/12/12 23:18:26;;;;;;;6.35;1.88;;;26.20;71.70;;;;;;6215578;23;19996;-70
2023/12/12 23:20:53;;;;;;;7.53;1.90;;;26.20;72.50;;;;;;6215668;23;20058;-70
2023/12/12 23:23:20;;;;;;;8.00;1.70;;;26.10;71.00;;;;;;6216059;23;20352;-70
2023/12/12 23:25:47;;;;;;;8.93;1.77;;;26.10;71.60;;;;;;6217034;23;20062;-70
2023/12/12 23:28:15;;;;;;;8.23;1.67;;;26.10;71.50;;;;;;6215766;23;20095;-70
2023/12/12 23:30:44;;;;;;;6.30;1.75;;;26.30;71.50;;;;;;6215893;23;20340;-71
2023/12/12 23:33:12;;;;;;;5.13;1.83;;;26.30;71.30;;;;;;6164373;23;20447;-71
2023/12/12 23:35:39;;;;;;;10.70;1.98;;;26.30;71.60;;;;;;6215934;23;20011;-71
2023/12/12 23:38:06;;;;;;;9.27;1.90;;;26.40;70.30;;;;;;6215570;23;19996;-71
2023/12/12 23:40:34;;;;;;;5.88;1.67;;;26.40;70.70;;;;;;6215824;23;20004;-71
2023/12/12 23:43:01;;;;;;;8.82;1.77;;;26.40;70.90;;;;;;6215448;23;20008;-71
2023/12/12 23:45:28;;;;;;;9.05;1.83;;;26.50;71.30;;;;;;6215651;23;20004;-71
2023/12/12 23:47:55;;;;;;;7.28;2.28;;;26.50;71.90;;;;;;6215573;23;19997;-70
2023/12/12 23:50:23;;;;;;;8.30;2.00;;;26.70;72.40;;;;;;6215652;23;20328;-71
2023/12/12 23:52:50;;;;;;;6.18;1.60;;;26.60;71.50;;;;;;6213727;23;20012;-70
2023/12/12 23:55:17;;;;;;;8.65;1.85;;;26.50;72.00;;;;;;6215625;23;20447;-71
2023/12/12 23:57:44;;;;;;;10.93;2.10;;;26.50;71.50;;;;;;6215091;23;20075;-71
